createdAt,value
2023-02-11T00:03:45.288Z,20.80
2023-02-11T00:08:47.837Z,21.08
2023-02-11T00:13:50.204Z,22.23
2023-02-11T00:18:54.434Z,21.08
2023-02-11T00:23:58.366Z,21.15
2023-02-11T00:29:01.917Z,19.52
2023-02-11T00:34:04.157Z,20.98
2023-02-11T00:39:07.567Z,21.67
2023-02-11T00:44:09.654Z,20.50
2023-02-11T00:49:12.083Z,20.50
2023-02-11T00:54:14.235Z,18.92
2023-02-11T00:59:16.533Z,19.52
2023-02-11T01:04:18.820Z,19.70
2023-02-11T01:09:21.585Z,21.20
2023-02-11T01:14:23.900Z,21.40
2023-02-11T01:19:25.980Z,24.75
2023-02-11T01:24:28.568Z,21.50
2023-02-11T01:29:30.958Z,18.73
2023-02-11T01:34:33.055Z,21.05
2023-02-11T01:39:35.974Z,20.10
2023-02-11T01:44:40.617Z,21.65
2023-02-11T01:49:50.375Z,18.17
2023-02-11T01:55:19.267Z,16.95
2023-02-11T02:00:26.677Z,19.48
2023-02-11T02:05:31.701Z,18.88
2023-02-11T02:10:37.006Z,16.35
2023-02-11T02:15:51.062Z,17.08
2023-02-11T02:21:13.784Z,15.43
2023-02-11T02:26:52.087Z,14.70
2023-02-11T02:32:12.752Z,11.88
2023-02-11T02:37:47.941Z,11.38
2023-02-11T02:42:51.386Z,10.68
2023-02-11T02:47:53.845Z,10.90
2023-02-11T02:58:36.412Z,11.57
2023-02-11T03:04:12.598Z,12.13
2023-02-11T03:09:27.189Z,12.20
2023-02-11T03:14:31.151Z,12.43
2023-02-11T03:19:39.183Z,11.35
2023-02-11T03:24:41.931Z,10.85
2023-02-11T03:29:56.111Z,11.75
2023-02-11T03:35:04.202Z,11.65
2023-02-11T03:40:11.134Z,11.68
2023-02-11T03:45:18.987Z,11.43
2023-02-11T03:50:22.487Z,11.13
2023-02-11T03:55:27.060Z,11.35
2023-02-11T04:00:34.375Z,10.90
2023-02-11T04:05:37.082Z,11.38
2023-02-11T04:10:39.271Z,11.68
2023-02-11T04:15:41.415Z,11.63
2023-02-11T04:20:43.798Z,11.80
2023-02-11T04:25:46.006Z,11.52
2023-02-11T04:30:50.744Z,12.13
2023-02-11T04:35:53.030Z,13.35
2023-02-11T04:40:55.243Z,13.13
2023-02-11T04:45:59.146Z,11.68
2023-02-11T04:51:02.737Z,13.48
2023-02-11T04:56:05.275Z,14.18
2023-02-11T05:01:09.753Z,12.48
2023-02-11T05:06:12.099Z,13.43
2023-02-11T05:11:21.901Z,13.13
2023-02-11T05:16:24.249Z,14.02
2023-02-11T05:21:26.440Z,14.48
2023-02-11T05:26:28.661Z,14.98
2023-02-11T05:31:30.837Z,14.65
2023-02-11T05:36:33.569Z,15.60
2023-02-11T05:41:35.731Z,16.25
2023-02-11T05:46:37.974Z,14.57
2023-02-11T05:51:40.308Z,13.70
2023-02-11T05:56:44.717Z,14.52
2023-02-11T06:01:47.091Z,13.93
2023-02-11T06:06:49.270Z,13.88
2023-02-11T06:11:51.353Z,15.30
2023-02-11T06:16:53.548Z,14.52
2023-02-11T06:21:56.858Z,13.98
2023-02-11T06:26:58.934Z,14.15
2023-02-11T06:32:01.149Z,18.80
2023-02-11T06:37:03.699Z,20.38
2023-02-11T06:42:07.921Z,19.17
2023-02-11T06:47:10.255Z,19.38
2023-02-11T06:52:12.490Z,22.13
2023-02-11T06:57:14.637Z,19.60
2023-02-11T07:02:19.666Z,21.25
2023-02-11T07:07:22.857Z,22.27
2023-02-11T07:12:25.013Z,22.77
2023-02-11T07:17:27.188Z,21.52
2023-02-11T07:22:29.298Z,21.45
2023-02-11T07:27:31.487Z,21.52
2023-02-11T07:32:33.636Z,20.45
2023-02-11T07:37:35.997Z,20.58
2023-02-11T07:42:40.713Z,21.92
2023-02-11T07:47:43.201Z,21.65
2023-02-11T07:52:45.397Z,21.80
2023-02-11T07:57:47.567Z,23.23
2023-02-11T08:02:49.731Z,24.45
2023-02-11T08:07:53.360Z,22.48
2023-02-11T08:12:55.730Z,21.83
2023-02-11T08:17:58.007Z,23.02
2023-02-11T08:23:00.225Z,17.48
2023-02-11T08:28:02.357Z,15.88
2023-02-11T08:33:05.093Z,13.32
2023-02-11T08:38:07.272Z,11.32
2023-02-11T08:43:09.411Z,10.43
2023-02-11T08:48:11.665Z,11.85
2023-02-11T08:53:13.985Z,12.32
2023-02-11T08:58:18.787Z,10.30
2023-02-11T09:03:24.063Z,11.10
2023-02-11T09:08:26.410Z,10.60
2023-02-11T09:13:28.720Z,11.13
2023-02-11T09:18:31.385Z,10.73
2023-02-11T09:23:35.023Z,9.38
2023-02-11T09:28:37.474Z,10.30
2023-02-11T09:33:42.452Z,10.63
2023-02-11T09:38:45.451Z,9.15
2023-02-11T09:43:49.991Z,9.05
2023-02-11T09:48:56.625Z,9.95
2023-02-11T09:54:05.609Z,10.95
2023-02-11T09:59:14.398Z,9.82
2023-02-11T10:04:47.756Z,9.30
2023-02-11T10:10:01.972Z,11.88
2023-02-11T10:15:22.068Z,9.25
2023-02-11T10:20:54.845Z,9.55
2023-02-11T10:25:58.161Z,10.73
2023-02-11T10:31:09.175Z,8.57
2023-02-11T10:36:16.806Z,8.82
2023-02-11T10:41:24.822Z,8.75
2023-02-11T10:46:32.596Z,8.85
2023-02-11T10:51:34.902Z,9.13
2023-02-11T10:56:40.292Z,8.27
2023-02-11T11:01:42.485Z,7.75
2023-02-11T11:06:44.854Z,7.25
2023-02-11T11:11:54.147Z,8.50
2023-02-11T11:16:56.353Z,7.57
2023-02-11T11:21:58.586Z,7.97
2023-02-11T11:27:03.546Z,6.25
2023-02-11T11:32:17.782Z,6.57
2023-02-11T11:37:28.474Z,6.40
2023-02-11T11:42:33.619Z,6.35
2023-02-11T11:47:43.395Z,5.40
2023-02-11T11:52:48.135Z,6.28
2023-02-11T11:57:51.249Z,5.40
2023-02-11T12:03:42.667Z,5.10
2023-02-11T12:09:21.950Z,5.22
2023-02-11T12:14:33.259Z,5.95
2023-02-11T12:19:59.703Z,4.47
2023-02-11T12:25:25.794Z,4.07
2023-02-11T12:30:59.916Z,4.85
2023-02-11T12:36:13.883Z,5.28
2023-02-11T12:41:51.476Z,5.50
2023-02-11T12:47:37.506Z,5.55
2023-02-11T12:53:04.616Z,4.47
2023-02-11T12:58:17.596Z,6.30
2023-02-11T13:03:43.681Z,6.63
2023-02-11T13:08:53.988Z,4.80
2023-02-11T13:14:13.297Z,4.72
2023-02-11T13:19:33.459Z,5.68
2023-02-11T13:24:51.599Z,5.30
2023-02-11T13:30:12.171Z,5.00
2023-02-11T13:35:39.840Z,4.97
2023-02-11T13:40:42.089Z,5.18
2023-02-11T13:45:47.496Z,5.13
2023-02-11T13:50:53.817Z,5.65
2023-02-11T13:56:12.408Z,4.47
2023-02-11T14:01:44.646Z,6.25
2023-02-11T14:07:44.142Z,3.90
2023-02-11T14:13:06.675Z,4.43
2023-02-11T14:18:39.621Z,4.50
2023-02-11T14:23:42.594Z,4.65
2023-02-11T14:28:47.131Z,4.80
2023-02-11T14:33:59.986Z,4.40
2023-02-11T14:39:27.454Z,4.88
2023-02-11T14:44:32.841Z,4.72
2023-02-11T14:49:40.286Z,4.88
2023-02-11T14:54:44.374Z,4.85
2023-02-11T15:00:04.582Z,4.85
2023-02-11T15:05:22.557Z,4.55
2023-02-11T15:10:36.371Z,5.00
2023-02-11T15:15:41.150Z,4.18
2023-02-11T15:20:43.531Z,5.13
2023-02-11T15:25:56.233Z,5.50
2023-02-11T15:31:14.120Z,5.10
2023-02-11T15:36:18.045Z,5.35
2023-02-11T15:41:49.494Z,7.53
2023-02-11T15:46:51.789Z,8.80
2023-02-11T15:51:57.403Z,8.10
2023-02-11T15:57:08.837Z,11.30
2023-02-11T16:02:33.193Z,16.75
2023-02-11T16:07:40.807Z,20.58
2023-02-11T16:12:52.208Z,16.95
2023-02-11T16:17:55.001Z,15.45
2023-02-11T16:22:57.296Z,15.43
2023-02-11T16:27:59.552Z,24.92
2023-02-11T16:33:01.975Z,24.02
2023-02-11T16:38:04.120Z,25.33
2023-02-11T16:43:06.345Z,20.95
2023-02-11T16:48:10.205Z,27.45
2023-02-11T16:53:13.956Z,31.60
2023-02-11T16:58:16.480Z,32.63
2023-02-11T17:03:27.428Z,31.45
2023-02-11T17:08:30.944Z,30.15
2023-02-11T17:13:33.790Z,31.23
2023-02-11T17:18:37.291Z,30.70
2023-02-11T17:23:39.943Z,26.75
2023-02-11T17:28:42.190Z,24.88
2023-02-11T17:33:44.479Z,19.63
2023-02-11T17:38:46.749Z,14.30
2023-02-11T17:43:49.015Z,14.18
2023-02-11T17:48:53.282Z,11.13
2023-02-11T17:53:58.483Z,12.20
2023-02-11T17:59:02.740Z,11.27
2023-02-11T18:04:05.972Z,7.93
2023-02-11T18:09:08.263Z,7.25
2023-02-11T18:14:10.783Z,14.50
2023-02-11T18:19:13.446Z,13.20
2023-02-11T18:24:15.693Z,12.52
2023-02-11T18:29:17.846Z,26.35
2023-02-11T18:34:20.033Z,25.75
2023-02-11T18:39:24.476Z,27.38
2023-02-11T18:44:27.622Z,27.60
2023-02-11T18:49:29.782Z,23.52
2023-02-11T18:54:32.039Z,22.58
2023-02-11T18:59:34.259Z,22.65
2023-02-11T19:04:37.867Z,25.38
2023-02-11T19:09:40.077Z,22.77
2023-02-11T19:14:42.245Z,33.58
2023-02-11T19:19:44.422Z,53.10
2023-02-11T19:24:46.695Z,49.53
2023-02-11T19:29:49.043Z,51.20
2023-02-11T19:34:52.260Z,52.42
2023-02-11T19:39:54.503Z,36.53
2023-02-11T19:44:57.589Z,37.42
2023-02-11T19:49:59.924Z,32.55
2023-02-11T19:55:02.140Z,35.90
2023-02-11T20:00:05.339Z,31.75
2023-02-11T20:05:08.245Z,28.40
2023-02-11T20:10:10.846Z,26.23
2023-02-11T20:15:13.112Z,32.25
2023-02-11T20:20:15.348Z,33.20
2023-02-11T20:25:17.630Z,43.17
2023-02-11T20:30:21.885Z,36.45
2023-02-11T20:35:24.037Z,45.40
2023-02-11T20:40:27.455Z,36.92
2023-02-11T20:45:29.710Z,39.70
2023-02-11T20:50:31.849Z,37.63
2023-02-11T20:55:38.416Z,38.92
2023-02-11T21:00:40.615Z,35.55
2023-02-11T21:05:42.815Z,35.40
2023-02-11T21:10:44.986Z,34.75
2023-02-11T21:15:47.236Z,36.42
2023-02-11T21:20:49.718Z,35.45
2023-02-11T21:25:54.143Z,37.97
2023-02-11T21:30:58.271Z,34.90
2023-02-11T21:36:03.082Z,29.38
2023-02-11T21:41:06.239Z,31.20
2023-02-11T21:46:14.807Z,24.42
2023-02-11T21:51:23.326Z,17.75
2023-02-11T21:56:28.800Z,19.63
2023-02-11T22:01:33.649Z,21.63
2023-02-11T22:06:35.951Z,21.98
2023-02-11T22:11:38.382Z,25.27
2023-02-11T22:16:40.792Z,24.13
2023-02-11T22:21:43.748Z,22.52
2023-02-11T22:26:45.878Z,24.45
2023-02-11T22:31:48.102Z,24.83
2023-02-11T22:36:50.244Z,25.70
2023-02-11T22:41:54.732Z,22.33
2023-02-11T22:46:57.250Z,18.60
2023-02-11T22:51:59.874Z,17.45
2023-02-11T22:57:02.075Z,21.52
2023-02-11T23:02:04.488Z,22.98
2023-02-11T23:07:07.457Z,19.35
2023-02-11T23:12:09.569Z,22.00
2023-02-11T23:17:11.781Z,24.73
2023-02-11T23:22:13.885Z,20.08
2023-02-11T23:27:16.010Z,33.42
2023-02-11T23:32:19.652Z,27.02
2023-02-11T23:37:21.924Z,22.63
2023-02-11T23:42:24.091Z,21.85
2023-02-11T23:47:26.204Z,25.52
2023-02-11T23:52:28.656Z,24.58
2023-02-11T23:57:33.256Z,22.42
